Hoopa Valley Indian Reservat, California
Current Conditions -  °F | °C
As of 2:53 PM on Saturday 22 Nov 2014 (Local Time) from KACV Reporting Station
Few Clouds Few Clouds  
Wind Chill: 58°   Ceiling: Unl
Heat Index: 58°   Visibility: 10mi
Dew Point: 47°   Wind: 7mph
Humidity: 67%   Direction: 340°NNW
Pressure: 30.2"   Gusts: NA
Location:  41.4038°N, 123.781°W
Report Text: KACV 222253Z AUTO 34006KT 10SM FEW070 14/08 A3020 RMK AO2 RAE13 SLP230 P0000 T01440083
Loading
Personal Weather Stations






























Interactive Weather Map New forecast layout! Learn more

10-Day Weather Forecast

Advertisements
Track Severe Weather on mobile